Time;durP1;ratioP1;P1;durP2;ratioP2;P2;SDS_P1;SDS_P2;PMS_P1;PMS_P2;Temp;Humidity;BMP_temperature;BMP_pressure;BME280_temperature;BME280_humidity;BME280_pressure;Samples;Min_cycle;Max_cycle;Signal;HPM_P1;HPM_P2
2022/04/26 03:38:29;;;;;;;9.27;3.30;;;9.00;88.30;;;;;;5074457;28;20093;-73
2022/04/26 03:40:57;;;;;;;7.77;2.67;;;9.00;88.40;;;;;;5074456;28;20457;-73
2022/04/26 03:43:22;;;;;;;7.97;3.50;;;9.00;88.60;;;;;;5056114;28;20406;-74
2022/04/26 03:45:48;;;;;;;9.97;3.40;;;9.00;89.20;;;;;;5056586;28;20032;-73
2022/04/26 03:48:14;;;;;;;10.60;4.50;;;9.00;89.40;;;;;;5039596;28;20029;-73
2022/04/26 03:50:40;;;;;;;8.50;3.60;;;9.00;90.00;;;;;;5056438;28;20039;-73
2022/04/26 03:53:06;;;;;;;6.30;3.60;;;9.00;90.00;;;;;;5074067;28;20056;-73
2022/04/26 03:55:31;;;;;;;6.80;3.47;;;9.00;90.10;;;;;;5055957;28;20029;-73
2022/04/26 03:57:57;;;;;;;7.23;3.30;;;9.00;90.10;;;;;;5039375;28;20024;-73
2022/04/26 04:00:23;;;;;;;5.83;2.67;;;9.00;90.20;;;;;;5055512;28;20029;-73
2022/04/26 04:02:49;;;;;;;9.40;3.37;;;8.90;90.10;;;;;;5073961;28;20103;-72
2022/04/26 04:05:15;;;;;;;8.83;3.30;;;9.10;90.40;;;;;;5055875;28;20056;-73
2022/04/26 04:07:41;;;;;;;7.03;3.10;;;9.00;90.40;;;;;;5056239;28;20024;-73
2022/04/26 04:10:07;;;;;;;11.90;4.70;;;9.00;90.80;;;;;;5055872;28;20473;-73
2022/04/26 04:12:32;;;;;;;7.33;4.00;;;9.10;90.60;;;;;;5073928;28;20039;-73
2022/04/26 04:14:58;;;;;;;11.47;4.43;;;9.00;90.80;;;;;;5039273;28;20485;-73
2022/04/26 04:17:24;;;;;;;8.90;3.50;;;9.10;91.20;;;;;;5055516;28;20024;-73
2022/04/26 04:19:49;;;;;;;10.23;4.07;;;9.10;90.90;;;;;;5055794;28;20028;-73
2022/04/26 04:22:15;;;;;;;8.67;4.10;;;9.10;91.30;;;;;;5055590;28;20052;-73
2022/04/26 04:24:41;;;;;;;9.90;4.60;;;9.10;91.30;;;;;;5073602;28;20021;-73
2022/04/26 04:27:09;;;;;;;12.40;3.87;;;9.00;91.10;;;;;;5055384;28;20082;-73
2022/04/26 04:29:34;;;;;;;7.90;4.33;;;9.00;91.40;;;;;;5055893;28;20028;-73
2022/04/26 04:32:01;;;;;;;10.47;4.13;;;8.90;91.40;;;;;;5073519;28;20058;-73
2022/04/26 04:34:26;;;;;;;7.30;4.30;;;9.00;91.30;;;;;;5055828;28;20461;-73
2022/04/26 04:36:52;;;;;;;8.80;4.53;;;8.90;91.70;;;;;;5038709;28;20071;-73
2022/04/26 04:39:23;;;;;;;12.27;5.67;;;9.10;91.90;;;;;;5055429;28;20033;-73
2022/04/26 04:41:51;;;;;;;14.57;4.83;;;8.90;91.70;;;;;;5055345;28;20052;-73
2022/04/26 04:44:18;;;;;;;7.67;3.80;;;8.90;92.00;;;;;;5055262;28;20035;-74
2022/04/26 04:46:45;;;;;;;13.97;5.37;;;8.90;91.90;;;;;;5072996;28;20025;-73
2022/04/26 04:49:10;;;;;;;9.90;4.73;;;9.00;92.00;;;;;;5055439;28;20111;-74
2022/04/26 04:51:36;;;;;;;10.50;4.60;;;8.90;92.00;;;;;;5038671;28;20060;-74
2022/04/26 04:54:02;;;;;;;11.07;5.23;;;8.90;92.10;;;;;;5073063;28;20477;-75
2022/04/26 04:56:28;;;;;;;13.30;4.67;;;8.90;92.40;;;;;;5038997;28;20033;-73
2022/04/26 04:58:54;;;;;;;16.30;5.83;;;8.90;92.30;;;;;;5055746;28;20036;-73
2022/04/26 05:01:20;;;;;;;11.33;4.80;;;8.90;92.40;;;;;;5054993;28;20052;-74
2022/04/26 05:03:46;;;;;;;14.70;5.37;;;8.90;92.50;;;;;;5055270;28;20025;-73
2022/04/26 05:06:14;;;;;;;11.43;5.97;;;9.00;92.70;;;;;;5055245;28;20032;-74
2022/04/26 05:08:40;;;;;;;8.43;5.43;;;9.00;92.90;;;;;;5062581;28;20043;-74
2022/04/26 05:11:06;;;;;;;13.20;5.87;;;9.00;92.80;;;;;;5074353;28;20036;-74
2022/04/26 05:13:32;;;;;;;14.60;6.17;;;9.00;92.80;;;;;;5095937;28;20032;-72
2022/04/26 05:15:57;;;;;;;15.03;6.33;;;9.00;93.20;;;;;;5096056;28;20074;-74
2022/04/26 05:18:23;;;;;;;11.73;7.20;;;9.00;93.10;;;;;;5079207;28;20052;-74
2022/04/26 05:20:49;;;;;;;12.50;6.70;;;9.10;93.20;;;;;;5096956;28;20016;-74
2022/04/26 05:25:58;;;;;;;12.55;6.40;;;9.10;93.20;;;;;;5081643;28;20043;-73
2022/04/26 05:28:24;;;;;;;11.50;5.63;;;9.10;93.10;;;;;;5078263;28;20020;-73
2022/04/26 05:30:54;;;;;;;15.27;6.40;;;9.10;93.00;;;;;;5058641;28;20028;-74
2022/04/26 05:33:21;;;;;;;11.70;6.63;;;9.20;93.00;;;;;;5076836;28;20110;-73
2022/04/26 05:35:49;;;;;;;13.73;7.73;;;9.20;93.10;;;;;;5058680;28;20040;-73
2022/04/26 05:38:16;;;;;;;16.93;7.73;;;9.20;93.20;;;;;;5082927;28;20553;-73
2022/04/26 05:40:42;;;;;;;15.20;7.77;;;9.30;93.20;;;;;;5069829;28;20078;-75
2022/04/26 05:43:08;;;;;;;15.57;7.33;;;9.30;93.20;;;;;;5064767;28;20439;-73
2022/04/26 05:45:33;;;;;;;14.73;7.83;;;9.30;93.50;;;;;;5090787;28;20095;-73
2022/04/26 05:47:59;;;;;;;20.80;8.20;;;9.40;93.20;;;;;;5072419;28;20103;-73
2022/04/26 05:50:25;;;;;;;18.83;7.60;;;9.40;93.20;;;;;;5074729;28;20034;-71
2022/04/26 05:52:51;;;;;;;20.63;7.50;;;9.40;93.20;;;;;;5064178;28;20023;-74
2022/04/26 05:55:16;;;;;;;22.53;8.40;;;9.40;93.10;;;;;;5087476;28;20042;-75
2022/04/26 05:57:42;;;;;;;15.83;7.10;;;9.50;93.10;;;;;;5056288;28;20071;-74
2022/04/26 06:00:10;;;;;;;16.33;7.97;;;9.50;93.00;;;;;;5075957;28;20063;-74
2022/04/26 06:02:36;;;;;;;14.60;7.30;;;9.50;92.90;;;;;;5074395;28;20425;-74
2022/04/26 06:05:03;;;;;;;11.87;7.03;;;9.70;92.90;;;;;;5075478;28;20052;-73
2022/04/26 06:07:29;;;;;;;12.33;6.20;;;9.60;92.90;;;;;;5076441;28;20035;-73
2022/04/26 06:09:55;;;;;;;15.50;7.67;;;9.70;92.80;;;;;;5057884;28;20493;-74
2022/04/26 06:12:26;;;;;;;15.97;6.87;;;9.70;92.70;;;;;;5076170;28;20500;-73
2022/04/26 06:14:53;;;;;;;14.97;6.80;;;9.70;92.70;;;;;;5058090;28;20029;-74
2022/04/26 06:17:19;;;;;;;18.97;7.87;;;9.80;92.70;;;;;;5075908;28;20472;-74
2022/04/26 06:19:44;;;;;;;13.20;7.17;;;9.80;92.60;;;;;;5096408;28;20047;-72
2022/04/26 06:22:10;;;;;;;12.13;6.47;;;9.90;92.50;;;;;;5061326;28;20127;-73
2022/04/26 06:24:37;;;;;;;13.97;7.10;;;9.90;92.50;;;;;;5096237;28;20111;-74
2022/04/26 06:27:03;;;;;;;14.33;5.97;;;10.10;92.60;;;;;;5095761;28;20031;-74
2022/04/26 06:29:29;;;;;;;9.23;4.83;;;10.00;92.60;;;;;;5095684;28;20028;-74
2022/04/26 06:31:55;;;;;;;11.37;5.93;;;10.10;92.60;;;;;;5095645;28;20089;-74
2022/04/26 06:34:21;;;;;;;16.33;5.67;;;10.20;92.60;;;;;;5095474;28;20028;-74
2022/04/26 06:36:47;;;;;;;12.93;5.00;;;10.30;92.60;;;;;;5095821;28;20111;-76
2022/04/26 06:39:12;;;;;;;11.83;6.13;;;10.40;92.60;;;;;;5077441;28;20026;-74
2022/04/26 06:41:38;;;;;;;12.80;5.37;;;10.50;92.50;;;;;;5077122;28;20024;-74
2022/04/26 06:44:04;;;;;;;15.70;4.57;;;10.60;92.50;;;;;;5077302;28;20024;-75
2022/04/26 06:46:29;;;;;;;12.93;5.85;;;10.70;92.40;;;;;;5077214;28;20031;-74
2022/04/26 06:48:58;;;;;;;12.82;5.95;;;10.80;92.30;;;;;;5077362;28;20028;-74
2022/04/26 06:51:24;;;;;;;12.07;5.22;;;10.90;92.20;;;;;;5077459;28;20028;-71
2022/04/26 06:53:51;;;;;;;14.05;5.22;;;10.90;92.00;;;;;;5077266;28;20028;-75
2022/04/26 06:56:17;;;;;;;13.70;4.80;;;11.00;91.90;;;;;;5095200;28;20032;-72
2022/04/26 06:58:42;;;;;;;17.33;4.97;;;11.00;91.70;;;;;;5095348;28;20468;-71
2022/04/26 07:01:08;;;;;;;13.57;4.50;;;11.10;91.60;;;;;;5077121;28;20464;-74
2022/04/26 07:03:33;;;;;;;17.33;4.90;;;11.20;91.40;;;;;;5077455;28;20024;-73
2022/04/26 07:05:59;;;;;;;17.75;4.20;;;11.20;91.30;;;;;;5095528;28;20028;-72
2022/04/26 07:08:25;;;;;;;9.23;4.03;;;11.30;91.20;;;;;;5094937;28;20032;-72
2022/04/26 07:10:51;;;;;;;12.15;4.55;;;11.30;91.10;;;;;;5095028;28;20023;-73
2022/04/26 07:13:20;;;;;;;11.77;4.50;;;11.30;90.90;;;;;;5076675;28;20054;-73
2022/04/26 07:15:46;;;;;;;9.82;4.43;;;11.30;90.80;;;;;;5095092;28;20090;-72
2022/04/26 07:18:14;;;;;;;15.02;4.40;;;11.40;90.70;;;;;;5076601;28;20020;-74
2022/04/26 07:20:44;;;;;;;12.57;4.78;;;11.50;90.60;;;;;;5077280;28;20067;-72
2022/04/26 07:23:10;;;;;;;12.57;4.40;;;11.50;90.50;;;;;;5094578;28;20036;-73
2022/04/26 07:25:35;;;;;;;15.68;5.38;;;11.60;90.30;;;;;;5094820;28;20414;-72
2022/04/26 07:28:01;;;;;;;15.43;5.13;;;11.60;90.20;;;;;;5076870;28;20036;-72
2022/04/26 07:30:34;;;;;;;9.98;4.10;;;11.60;90.00;;;;;;5095019;28;20024;-73
2022/04/26 07:35:45;;;;;;;10.23;4.05;;;11.60;89.60;;;;;;5065483;28;20058;-73
2022/04/26 07:38:11;;;;;;;11.85;4.20;;;11.60;89.40;;;;;;5076329;28;20476;-72
2022/04/26 07:40:36;;;;;;;12.35;3.88;;;11.60;89.10;;;;;;5094531;28;20537;-72
2022/04/26 07:43:03;;;;;;;13.13;4.47;;;11.60;89.00;;;;;;5059747;28;20024;-74
2022/04/26 07:45:30;;;;;;;11.25;4.80;;;11.60;88.70;;;;;;5076631;28;20051;-72
2022/04/26 07:47:56;;;;;;;14.50;4.28;;;11.70;88.60;;;;;;5076344;28;20110;-73
2022/04/26 07:50:22;;;;;;;10.15;4.95;;;11.70;88.40;;;;;;5059737;28;20442;-73
2022/04/26 07:52:48;;;;;;;10.50;4.20;;;11.70;88.00;;;;;;5076148;28;20032;-72
2022/04/26 07:55:13;;;;;;;9.65;4.00;;;11.70;87.80;;;;;;5059744;28;20028;-72
2022/04/26 07:57:39;;;;;;;11.85;4.55;;;11.70;87.70;;;;;;5059713;28;20023;-73
2022/04/26 08:00:06;;;;;;;12.02;4.05;;;11.70;87.60;;;;;;5059254;28;20415;-72
2022/04/26 08:02:32;;;;;;;9.60;3.88;;;11.70;87.50;;;;;;5076384;28;20065;-73
2022/04/26 08:05:01;;;;;;;11.35;4.18;;;11.70;87.40;;;;;;5059133;28;20050;-72
2022/04/26 08:07:31;;;;;;;9.38;3.92;;;11.70;87.30;;;;;;5075868;28;20028;-73
2022/04/26 08:09:57;;;;;;;10.05;4.20;;;11.70;87.10;;;;;;5059227;28;20024;-72
2022/04/26 08:12:22;;;;;;;10.80;4.03;;;11.70;87.10;;;;;;5075905;28;20024;-72
2022/04/26 08:14:48;;;;;;;9.18;3.67;;;11.80;87.00;;;;;;5059737;28;20034;-72
2022/04/26 08:17:15;;;;;;;12.23;4.13;;;11.80;86.70;;;;;;5075651;28;20118;-73
2022/04/26 08:19:42;;;;;;;8.30;3.40;;;11.80;86.30;;;;;;5094356;28;20404;-73
2022/04/26 08:22:08;;;;;;;8.27;3.30;;;11.80;86.20;;;;;;5075252;28;20056;-73
2022/04/26 08:27:25;;;;;;;6.90;3.17;;;11.90;85.80;;;;;;5093293;28;20096;-72
2022/04/26 08:29:54;;;;;;;8.95;3.38;;;11.90;85.50;;;;;;5092867;28;20081;-72
2022/04/26 08:32:19;;;;;;;7.75;2.55;;;11.90;85.10;;;;;;5092920;28;20426;-72
2022/04/26 08:34:45;;;;;;;5.65;2.10;;;11.90;84.50;;;;;;5074865;28;20102;-73
2022/04/26 08:37:11;;;;;;;9.75;2.40;;;12.00;83.90;;;;;;5058179;28;20472;-74
2022/04/26 08:39:36;;;;;;;4.50;1.40;;;12.00;83.10;;;;;;5058107;28;20042;-72
2022/04/26 08:42:04;;;;;;;8.27;2.03;;;12.10;82.90;;;;;;5074523;28;20070;-73
2022/04/26 08:44:31;;;;;;;5.38;1.90;;;12.30;82.10;;;;;;5074699;28;20119;-73
2022/04/26 08:52:49;;;;;;;4.90;1.48;;;12.50;79.90;;;;;;5068745;28;20476;-73
2022/04/26 08:55:15;;;;;;;6.75;1.73;;;12.50;79.70;;;;;;5092545;28;20115;-74
2022/04/26 08:57:41;;;;;;;6.88;2.42;;;12.60;79.30;;;;;;5092559;28;20107;-73
2022/04/26 09:00:11;;;;;;;5.45;1.80;;;12.70;78.90;;;;;;5092396;28;20058;-73
2022/04/26 09:02:38;;;;;;;8.63;1.98;;;12.80;78.30;;;;;;5074153;28;20069;-72
2022/04/26 09:05:13;;;;;;;5.57;2.03;;;12.90;77.90;;;;;;5057368;28;20036;-73
2022/04/26 09:07:40;;;;;;;5.22;1.95;;;13.00;77.50;;;;;;5092363;28;20024;-73
2022/04/26 09:10:10;;;;;;;10.07;1.85;;;13.10;76.70;;;;;;5092477;28;20069;-74
2022/04/26 09:13:04;;;;;;;5.70;1.73;;;13.10;76.20;;;;;;5074526;28;20387;-73
2022/04/26 09:15:47;;;;;;;3.85;1.70;;;13.30;75.30;;;;;;5074330;28;20035;-73
2022/04/26 09:18:31;;;;;;;6.32;1.50;;;13.30;74.80;;;;;;5091994;28;20070;-72
2022/04/26 09:21:07;;;;;;;5.80;1.70;;;13.40;74.20;;;;;;5092302;28;20410;-73
2022/04/26 09:23:33;;;;;;;5.43;1.70;;;13.50;74.00;;;;;;5053360;28;139286;-72
2022/04/26 09:25:58;;;;;;;9.60;2.03;;;13.60;73.00;;;;;;5093203;28;20085;-72
2022/04/26 09:28:27;;;;;;;5.18;1.90;;;13.60;72.20;;;;;;5074951;28;20115;-72
2022/04/26 09:30:55;;;;;;;8.13;2.00;;;13.70;71.50;;;;;;5058593;28;20115;-73
2022/04/26 09:33:33;;;;;;;5.82;1.30;;;13.70;71.40;;;;;;5058238;28;20025;-72
2022/04/26 09:36:03;;;;;;;5.85;1.60;;;13.80;70.80;;;;;;5093003;28;20020;-72
2022/04/26 09:38:33;;;;;;;5.57;2.03;;;13.80;70.20;;;;;;5041648;28;20027;-72
2022/04/26 09:41:05;;;;;;;5.50;1.50;;;13.90;69.90;;;;;;5074763;28;20028;-73
2022/04/26 09:43:32;;;;;;;4.10;1.52;;;13.90;69.30;;;;;;5092955;28;20043;-73
2022/04/26 09:45:59;;;;;;;7.28;1.67;;;14.00;69.10;;;;;;5074792;28;20028;-73
2022/04/26 09:48:33;;;;;;;4.18;1.27;;;14.10;68.80;;;;;;5058409;28;20042;-72
2022/04/26 09:50:59;;;;;;;6.30;1.38;;;14.10;68.20;;;;;;5092848;28;20028;-72
2022/04/26 09:53:25;;;;;;;3.58;0.93;;;14.30;68.40;;;;;;5074679;28;20358;-73
2022/04/26 09:55:55;;;;;;;5.07;1.40;;;14.40;67.30;;;;;;5092694;28;20357;-72
2022/04/26 09:58:22;;;;;;;2.72;1.20;;;14.40;67.30;;;;;;5094992;28;20035;-72
2022/04/26 10:00:50;;;;;;;7.82;1.75;;;14.50;67.00;;;;;;5096842;28;20088;-73
2022/04/26 10:03:23;;;;;;;6.68;1.35;;;14.70;66.80;;;;;;5078365;28;20039;-75
2022/04/26 10:05:58;;;;;;;5.28;1.50;;;14.80;66.60;;;;;;5096398;28;20578;-75
2022/04/26 10:08:27;;;;;;;3.83;1.55;;;14.90;66.80;;;;;;5096433;28;20039;-73
2022/04/26 10:10:52;;;;;;;3.95;1.15;;;14.90;66.60;;;;;;5096708;28;20024;-72
2022/04/26 10:13:39;;;;;;;4.10;1.35;;;15.00;66.50;;;;;;5061291;28;20388;-73
2022/04/26 10:16:11;;;;;;;3.10;1.00;;;15.20;66.30;;;;;;5063997;28;20115;-71
2022/04/26 10:18:44;;;;;;;5.40;1.65;;;15.30;65.90;;;;;;5078065;28;20032;-72
2022/04/26 10:21:22;;;;;;;5.32;1.50;;;15.50;65.60;;;;;;5096218;28;20034;-72
2022/04/26 10:23:51;;;;;;;4.25;1.55;;;15.60;65.20;;;;;;5077750;28;20454;-72
2022/04/26 10:26:23;;;;;;;4.20;1.65;;;15.80;64.90;;;;;;5077876;28;20031;-73
2022/04/26 10:28:59;;;;;;;4.22;1.15;;;15.90;64.60;;;;;;5077768;28;20162;-73
2022/04/26 10:31:45;;;;;;;4.03;1.38;;;16.10;64.00;;;;;;5078188;28;20043;-73
2022/04/26 10:34:32;;;;;;;2.13;1.13;;;16.30;63.20;;;;;;5095665;28;20016;-74
2022/04/26 10:37:06;;;;;;;5.05;1.25;;;16.50;62.90;;;;;;5095684;28;20055;-74
2022/04/26 10:40:01;;;;;;;2.65;1.20;;;16.80;62.40;;;;;;5077576;28;20020;-73
2022/04/26 10:42:29;;;;;;;4.20;1.27;;;16.90;61.50;;;;;;5077522;28;20020;-73
2022/04/26 10:45:10;;;;;;;5.38;1.55;;;17.10;61.60;;;;;;5077326;28;20043;-73
2022/04/26 10:47:37;;;;;;;4.55;1.48;;;17.00;60.80;;;;;;5095684;28;20452;-73
2022/04/26 10:50:05;;;;;;;2.63;0.90;;;17.10;61.10;;;;;;5077126;28;20024;-74
2022/04/26 10:52:36;;;;;;;4.55;1.48;;;17.20;59.80;;;;;;5077150;28;20369;-73
2022/04/26 10:55:06;;;;;;;2.60;1.13;;;17.30;59.30;;;;;;5077524;28;20085;-73
2022/04/26 10:57:42;;;;;;;3.45;1.10;;;17.40;59.00;;;;;;5095273;28;20028;-73
2022/04/26 11:00:09;;;;;;;2.80;1.35;;;17.50;58.50;;;;;;5095351;28;20150;-73
2022/04/26 11:02:56;;;;;;;4.22;1.20;;;17.60;58.30;;;;;;5077108;28;20069;-75
2022/04/26 11:05:27;;;;;;;5.30;1.20;;;17.70;58.00;;;;;;5077359;28;20396;-74
2022/04/26 11:07:55;;;;;;;3.67;1.15;;;17.90;57.60;;;;;;5077349;28;20039;-74
2022/04/26 11:11:00;;;;;;;6.53;1.42;;;18.00;57.20;;;;;;5075988;28;20036;-74
2022/04/26 11:13:20;;;;;;;2.40;1.02;;;18.10;56.40;;;;;;5094823;28;20028;-74
2022/04/26 11:15:45;;;;;;;4.05;1.13;;;18.10;56.80;;;;;;5060437;28;20461;-74
2022/04/26 11:18:20;;;;;;;3.90;1.20;;;18.30;56.00;;;;;;5059956;28;20033;-74
2022/04/26 11:20:47;;;;;;;10.38;1.45;;;18.50;55.30;;;;;;5076766;28;20032;-74
2022/04/26 11:28:50;;;;;;;4.18;1.25;;;18.80;54.40;;;;;;5095029;28;19911;-73
2022/04/26 11:31:16;;;;;;;5.18;1.95;;;18.80;54.70;;;;;;5076421;28;20028;-74
2022/04/26 11:33:52;;;;;;;3.08;1.27;;;18.80;54.20;;;;;;5094507;28;20036;-74
2022/04/26 11:36:17;;;;;;;3.80;1.17;;;18.90;53.80;;;;;;5076183;28;20020;-75
2022/04/26 11:38:55;;;;;;;5.60;1.38;;;19.00;53.60;;;;;;5076401;28;20096;-75
2022/04/26 11:41:21;;;;;;;7.05;1.75;;;19.20;53.00;;;;;;5076024;28;20373;-76
2022/04/26 11:43:47;;;;;;;5.50;1.98;;;19.30;53.10;;;;;;5094273;28;20026;-74
2022/04/26 11:46:12;;;;;;;5.63;1.55;;;19.40;53.10;;;;;;5076268;28;20028;-75
2022/04/26 11:48:39;;;;;;;6.85;1.83;;;19.70;52.80;;;;;;5094393;28;20026;-74
2022/04/26 11:51:06;;;;;;;4.80;1.70;;;19.90;52.60;;;;;;5094214;28;20116;-73
2022/04/26 11:53:36;;;;;;;5.18;1.42;;;20.10;52.10;;;;;;5075953;28;20028;-74
2022/04/26 11:56:04;;;;;;;5.00;1.88;;;20.30;51.50;;;;;;5094008;28;20032;-74
2022/04/26 11:58:30;;;;;;;3.70;1.15;;;20.60;51.30;;;;;;5075843;28;20028;-75
2022/04/26 12:01:04;;;;;;;3.40;1.55;;;20.90;50.80;;;;;;5075951;28;20434;-74
2022/04/26 12:03:40;;;;;;;9.45;1.75;;;21.30;50.80;;;;;;5075855;28;20111;-75
2022/04/26 12:06:08;;;;;;;3.80;1.35;;;21.70;49.60;;;;;;5093737;28;20027;-75
2022/04/26 12:08:41;;;;;;;3.20;1.27;;;22.00;49.40;;;;;;5059001;28;20055;-75
2022/04/26 12:11:24;;;;;;;4.13;1.50;;;22.20;48.60;;;;;;5075744;28;20069;-74
2022/04/26 12:14:07;;;;;;;4.20;1.20;;;22.50;48.10;;;;;;5075939;28;20024;-75
2022/04/26 12:16:43;;;;;;;2.65;1.00;;;22.80;47.30;;;;;;5093866;28;20059;-75
2022/04/26 12:19:08;;;;;;;4.97;1.27;;;22.80;47.00;;;;;;5075651;28;20012;-75
2022/04/26 12:21:45;;;;;;;3.60;1.17;;;22.90;46.60;;;;;;5075834;28;20024;-75
2022/04/26 12:24:15;;;;;;;4.72;1.40;;;22.90;45.70;;;;;;5093898;28;20020;-75
2022/04/26 12:26:58;;;;;;;3.90;1.40;;;23.00;45.80;;;;;;5075961;28;20119;-75
2022/04/26 12:29:29;;;;;;;3.47;1.17;;;23.10;44.90;;;;;;5093552;28;20091;-74
2022/04/26 12:32:08;;;;;;;3.40;1.08;;;23.10;44.90;;;;;;5075446;28;20112;-75
2022/04/26 12:34:34;;;;;;;3.55;1.08;;;23.20;44.90;;;;;;5093885;28;20028;-74
2022/04/26 12:37:00;;;;;;;3.20;1.13;;;23.30;44.40;;;;;;5093472;28;20022;-74
2022/04/26 12:39:44;;;;;;;4.30;1.30;;;23.30;44.20;;;;;;5093938;28;20102;-74
2022/04/26 12:42:12;;;;;;;4.43;1.30;;;23.50;43.70;;;;;;5093303;28;20016;-76
2022/04/26 12:44:49;;;;;;;2.15;0.90;;;23.70;43.90;;;;;;5076005;28;20039;-76
2022/04/26 12:52:53;;;;;;;4.40;1.00;;;24.00;42.70;;;;;;5093376;28;20154;-74
2022/04/26 12:55:32;;;;;;;3.38;1.00;;;24.20;42.70;;;;;;5058457;28;20043;-75
2022/04/26 12:58:00;;;;;;;4.68;1.13;;;24.50;42.00;;;;;;5075219;28;20107;-75
2022/04/26 13:00:27;;;;;;;5.50;1.30;;;24.80;41.90;;;;;;5075078;28;20020;-75
2022/04/26 13:02:56;;;;;;;19.30;1.55;;;25.00;41.40;;;;;;5093714;28;20032;-74
2022/04/26 13:05:22;;;;;;;2.95;0.98;;;25.00;41.00;;;;;;5093320;28;20028;-75
2022/04/26 13:07:49;;;;;;;3.33;1.00;;;24.90;40.70;;;;;;5093165;28;20464;-74
2022/04/26 13:10:20;;;;;;;3.65;1.00;;;24.80;40.60;;;;;;5084215;28;20070;-74
2022/04/26 13:12:46;;;;;;;3.47;1.13;;;25.00;40.20;;;;;;5059923;28;20392;-74
2022/04/26 13:15:15;;;;;;;4.85;1.27;;;25.10;40.00;;;;;;5054099;28;20033;-76
2022/04/26 13:17:41;;;;;;;3.60;0.93;;;25.20;39.70;;;;;;5054984;28;20062;-74
2022/04/26 13:20:10;;;;;;;2.60;0.90;;;25.20;39.50;;;;;;5055269;28;20062;-75
2022/04/26 13:22:37;;;;;;;2.40;1.00;;;25.30;39.40;;;;;;5072912;28;20098;-74
2022/04/26 13:25:07;;;;;;;2.85;1.00;;;25.40;39.10;;;;;;5055160;28;20396;-74
2022/04/26 13:27:35;;;;;;;2.45;0.80;;;25.30;38.80;;;;;;5054436;28;20522;-74
2022/04/26 13:30:02;;;;;;;3.35;0.80;;;25.50;38.90;;;;;;5038333;28;20038;-75
2022/04/26 13:32:30;;;;;;;3.28;0.85;;;25.70;38.70;;;;;;5056186;28;20055;-75
2022/04/26 13:34:56;;;;;;;2.53;0.85;;;26.10;38.40;;;;;;5077075;28;20330;-76
2022/04/26 13:37:22;;;;;;;4.47;1.00;;;26.30;38.10;;;;;;5058720;28;20538;-74
2022/04/26 13:39:49;;;;;;;5.10;1.00;;;26.60;37.80;;;;;;5042532;28;20021;-75
2022/04/26 13:42:16;;;;;;;2.65;0.93;;;26.90;37.50;;;;;;5059573;28;20472;-78
2022/04/26 13:44:41;;;;;;;3.22;1.02;;;27.20;37.20;;;;;;5076518;28;20032;-76
2022/04/26 13:47:08;;;;;;;3.65;0.95;;;27.30;36.60;;;;;;5058631;28;20047;-76
2022/04/26 13:49:35;;;;;;;4.93;0.88;;;27.30;36.30;;;;;;5058512;28;20393;-78
2022/04/26 13:52:01;;;;;;;3.40;1.08;;;27.30;36.30;;;;;;5058403;28;20027;-76
2022/04/26 13:54:27;;;;;;;2.75;0.80;;;27.40;36.00;;;;;;5041727;28;20473;-76
2022/04/26 13:56:56;;;;;;;2.50;0.80;;;27.60;35.90;;;;;;5058171;28;20028;-76
2022/04/26 13:59:23;;;;;;;3.53;0.90;;;27.70;35.60;;;;;;5076356;28;20020;-75
2022/04/26 14:01:49;;;;;;;4.75;1.45;;;27.90;35.60;;;;;;5064174;28;20013;-76
2022/04/26 14:04:16;;;;;;;2.50;0.98;;;28.10;35.20;;;;;;5078476;28;20021;-76
2022/04/26 14:06:41;;;;;;;2.08;0.60;;;28.30;35.10;;;;;;5078090;28;20016;-75
2022/04/26 14:09:07;;;;;;;1.90;0.70;;;28.50;35.00;;;;;;5078109;28;20567;-75
2022/04/26 14:11:33;;;;;;;2.95;0.80;;;28.60;34.80;;;;;;5078371;28;20063;-76
2022/04/26 14:22:11;;;;;;;1.83;0.80;;;28.80;34.80;;;;;;5081033;28;20137;-76
2022/04/26 14:24:38;;;;;;;4.00;1.00;;;28.90;34.20;;;;;;5061639;28;20051;-76
2022/04/26 14:27:04;;;;;;;4.45;1.00;;;29.10;34.10;;;;;;5095939;28;20032;-76
2022/04/26 14:29:30;;;;;;;3.08;1.00;;;29.00;33.60;;;;;;5061083;28;20050;-77
2022/04/26 14:31:55;;;;;;;3.35;0.90;;;28.80;33.50;;;;;;5078035;28;20032;-76
2022/04/26 14:34:22;;;;;;;2.08;0.80;;;28.80;33.70;;;;;;5077819;28;20454;-74
2022/04/26 14:36:48;;;;;;;2.20;0.90;;;28.80;33.80;;;;;;5077434;28;20035;-79
2022/04/26 14:39:15;;;;;;;4.10;0.95;;;28.90;33.60;;;;;;5060875;28;20044;-76
2022/04/26 14:41:41;;;;;;;2.20;1.10;;;29.00;33.50;;;;;;5077693;28;20024;-76
2022/04/26 14:44:07;;;;;;;2.47;0.90;;;29.10;33.40;;;;;;5077571;28;20023;-79
2022/04/26 14:46:36;;;;;;;2.72;1.23;;;29.20;33.40;;;;;;5077731;28;20029;-77
2022/04/26 14:49:03;;;;;;;2.88;1.05;;;29.20;33.30;;;;;;5060636;28;20494;-77
2022/04/26 14:51:29;;;;;;;3.30;1.10;;;29.20;33.30;;;;;;5075855;28;20471;-76
2022/04/26 14:53:55;;;;;;;2.13;0.80;;;29.20;33.20;;;;;;5095279;28;20032;-75
2022/04/26 14:56:21;;;;;;;4.07;1.10;;;29.30;33.20;;;;;;5076957;28;20028;-80
2022/04/26 14:58:49;;;;;;;5.47;1.00;;;29.30;33.80;;;;;;5094050;28;20515;-76
2022/04/26 15:01:15;;;;;;;4.15;0.85;;;29.40;33.70;;;;;;5060604;28;20023;-76
2022/04/26 15:03:40;;;;;;;2.85;0.80;;;29.40;33.00;;;;;;5061009;28;20032;-77
2022/04/26 15:06:06;;;;;;;3.88;0.75;;;29.20;32.90;;;;;;5060360;28;20568;-73
2022/04/26 15:11:20;;;;;;;3.58;0.90;;;28.50;33.20;;;;;;5075371;28;20036;-74
2022/04/26 15:16:38;;;;;;;3.72;0.73;;;27.80;33.50;;;;;;5095228;28;20059;-74
2022/04/26 15:19:05;;;;;;;2.33;0.80;;;27.40;33.80;;;;;;5061228;28;20490;-74
2022/04/26 15:21:30;;;;;;;4.45;1.33;;;27.20;34.10;;;;;;5094872;28;20356;-74
2022/04/26 15:23:56;;;;;;;2.00;0.88;;;27.00;34.10;;;;;;5094760;28;20028;-73
2022/04/26 15:26:24;;;;;;;4.75;0.85;;;26.90;34.30;;;;;;5076669;28;20099;-73
2022/04/26 15:28:50;;;;;;;2.90;1.00;;;26.70;34.30;;;;;;5076380;28;20027;-75
2022/04/26 15:31:18;;;;;;;3.45;1.20;;;26.50;34.60;;;;;;5076395;28;20020;-73
2022/04/26 15:33:45;;;;;;;3.10;1.20;;;26.30;34.70;;;;;;5076585;28;20050;-76
2022/04/26 15:36:11;;;;;;;4.20;0.93;;;26.00;34.80;;;;;;5094445;28;20086;-72
2022/04/26 15:38:37;;;;;;;2.67;1.08;;;25.80;34.90;;;;;;5094443;28;20464;-74
2022/04/26 15:41:05;;;;;;;3.90;1.17;;;25.50;35.20;;;;;;5076359;28;20454;-73
2022/04/26 15:43:32;;;;;;;2.05;0.90;;;25.20;35.40;;;;;;5076511;28;20024;-73
2022/04/26 15:45:58;;;;;;;4.20;1.10;;;25.00;35.40;;;;;;5059716;28;20073;-72
2022/04/26 15:48:24;;;;;;;1.92;0.73;;;24.70;35.60;;;;;;5076606;28;20190;-74
2022/04/26 15:50:50;;;;;;;3.05;1.02;;;24.60;36.00;;;;;;5094857;28;20102;-73
2022/04/26 15:53:16;;;;;;;4.28;1.08;;;24.40;36.10;;;;;;5094400;28;20085;-73
2022/04/26 15:55:42;;;;;;;3.10;1.02;;;24.20;36.30;;;;;;5091886;28;20028;-73
2022/04/26 15:58:08;;;;;;;2.67;0.82;;;24.00;36.60;;;;;;5093361;28;20040;-75
2022/04/26 16:00:34;;;;;;;2.03;0.80;;;23.80;36.90;;;;;;5087367;28;20385;-75
2022/04/26 16:03:03;;;;;;;4.28;1.05;;;23.70;36.90;;;;;;5097680;28;20016;-75
2022/04/26 16:05:31;;;;;;;2.38;0.88;;;23.50;37.10;;;;;;5083581;28;20028;-74
2022/04/26 16:07:57;;;;;;;4.22;1.10;;;23.30;37.30;;;;;;5075133;28;20039;-74
2022/04/26 16:21:23;;;;;;;4.63;1.00;;;22.30;38.30;;;;;;5107579;28;20341;-75
2022/04/26 16:23:49;;;;;;;5.43;0.88;;;22.10;38.40;;;;;;5105820;28;20130;-74
2022/04/26 16:26:19;;;;;;;2.33;0.80;;;22.00;38.50;;;;;;5097607;28;20017;-74
2022/04/26 16:28:47;;;;;;;2.63;0.98;;;21.80;38.50;;;;;;5092129;28;20047;-75
2022/04/26 16:31:13;;;;;;;2.90;1.10;;;21.70;38.70;;;;;;5106328;28;20029;-75
2022/04/26 16:33:39;;;;;;;2.92;1.10;;;21.50;38.80;;;;;;5112822;28;20032;-74
2022/04/26 16:36:07;;;;;;;2.75;1.02;;;21.50;38.90;;;;;;5077733;28;20050;-74
2022/04/26 16:38:33;;;;;;;5.25;0.90;;;21.30;38.90;;;;;;5100791;28;20028;-74
2022/04/26 16:41:01;;;;;;;2.72;0.75;;;21.10;39.10;;;;;;5092921;28;20028;-74
2022/04/26 16:43:27;;;;;;;3.45;0.82;;;20.90;39.20;;;;;;5092759;28;20436;-75
2022/04/26 16:45:53;;;;;;;2.75;0.80;;;20.80;39.30;;;;;;5075156;28;20025;-74
2022/04/26 16:48:18;;;;;;;2.20;0.82;;;20.60;39.50;;;;;;5058088;28;20069;-75
2022/04/26 16:50:44;;;;;;;2.55;0.93;;;20.50;39.60;;;;;;5094819;28;20502;-74
2022/04/26 16:53:10;;;;;;;4.80;1.10;;;20.40;39.80;;;;;;5086065;28;20129;-74
2022/04/26 16:55:35;;;;;;;3.40;0.90;;;20.30;39.90;;;;;;5109701;28;20085;-75
2022/04/26 16:58:02;;;;;;;2.47;0.80;;;20.20;39.90;;;;;;5091676;28;20039;-72
2022/04/26 17:00:28;;;;;;;3.95;1.00;;;20.20;40.60;;;;;;5105708;28;20048;-73
2022/04/26 17:02:54;;;;;;;2.55;0.90;;;20.10;40.00;;;;;;5105371;28;20047;-74
2022/04/26 17:05:22;;;;;;;3.20;0.85;;;20.00;40.10;;;;;;5103624;28;20092;-74
2022/04/26 17:07:49;;;;;;;3.03;0.90;;;19.90;40.10;;;;;;5108621;28;20052;-74
2022/04/26 17:10:16;;;;;;;2.75;0.85;;;19.90;40.30;;;;;;5096685;28;20031;-75
2022/04/26 17:12:42;;;;;;;4.03;0.90;;;19.80;40.30;;;;;;5106670;28;20026;-75
2022/04/26 17:15:09;;;;;;;3.25;0.90;;;19.70;40.30;;;;;;5113228;28;20027;-74
2022/04/26 17:17:34;;;;;;;2.45;0.88;;;19.70;40.40;;;;;;5098751;28;20024;-74